sensor_id;sensor_type;location;lat;lon;timestamp;P1;durP1;ratioP1;P2;durP2;ratioP2
3991;SDS011;2010;48.194;16.394;2023-08-21T00:01:46;11.10;;;10.20;;
3991;SDS011;2010;48.194;16.394;2023-08-21T00:04:19;9.97;;;9.07;;
3991;SDS011;2010;48.194;16.394;2023-08-21T00:06:47;10.60;;;9.77;;
3991;SDS011;2010;48.194;16.394;2023-08-21T00:09:18;11.67;;;10.63;;
3991;SDS011;2010;48.194;16.394;2023-08-21T00:11:46;10.60;;;9.57;;
3991;SDS011;2010;48.194;16.394;2023-08-21T00:14:30;10.73;;;9.77;;
3991;SDS011;2010;48.194;16.394;2023-08-21T00:17:01;11.80;;;10.53;;
3991;SDS011;2010;48.194;16.394;2023-08-21T00:19:32;15.00;;;9.87;;
3991;SDS011;2010;48.194;16.394;2023-08-21T00:22:10;12.17;;;10.30;;
3991;SDS011;2010;48.194;16.394;2023-08-21T00:24:48;11.13;;;10.07;;
3991;SDS011;2010;48.194;16.394;2023-08-21T00:27:21;11.47;;;10.43;;
3991;SDS011;2010;48.194;16.394;2023-08-21T00:29:52;11.13;;;10.07;;
3991;SDS011;2010;48.194;16.394;2023-08-21T00:32:22;10.40;;;9.40;;
3991;SDS011;2010;48.194;16.394;2023-08-21T00:34:53;10.57;;;9.77;;
3991;SDS011;2010;48.194;16.394;2023-08-21T00:37:24;9.93;;;9.03;;
3991;SDS011;2010;48.194;16.394;2023-08-21T00:39:52;10.37;;;9.47;;
3991;SDS011;2010;48.194;16.394;2023-08-21T00:42:24;16.33;;;9.90;;
3991;SDS011;2010;48.194;16.394;2023-08-21T00:45:06;10.70;;;9.50;;
3991;SDS011;2010;48.194;16.394;2023-08-21T00:47:39;10.87;;;9.97;;
3991;SDS011;2010;48.194;16.394;2023-08-21T00:50:08;11.07;;;10.17;;
3991;SDS011;2010;48.194;16.394;2023-08-21T00:52:54;10.20;;;9.40;;
3991;SDS011;2010;48.194;16.394;2023-08-21T00:55:24;11.27;;;10.27;;
3991;SDS011;2010;48.194;16.394;2023-08-21T00:57:53;12.80;;;10.10;;
3991;SDS011;2010;48.194;16.394;2023-08-21T01:00:35;12.80;;;10.50;;
3991;SDS011;2010;48.194;16.394;2023-08-21T01:03:07;10.73;;;9.87;;
3991;SDS011;2010;48.194;16.394;2023-08-21T01:05:47;11.00;;;9.97;;
3991;SDS011;2010;48.194;16.394;2023-08-21T01:08:25;11.70;;;10.70;;
3991;SDS011;2010;48.194;16.394;2023-08-21T01:11:02;13.27;;;10.90;;
3991;SDS011;2010;48.194;16.394;2023-08-21T01:13:43;12.93;;;10.57;;
3991;SDS011;2010;48.194;16.394;2023-08-21T01:16:23;10.03;;;9.23;;
3991;SDS011;2010;48.194;16.394;2023-08-21T01:19:02;9.77;;;9.07;;
3991;SDS011;2010;48.194;16.394;2023-08-21T01:21:34;10.97;;;10.07;;
3991;SDS011;2010;48.194;16.394;2023-08-21T01:24:05;11.50;;;10.60;;
3991;SDS011;2010;48.194;16.394;2023-08-21T01:26:40;10.73;;;9.73;;
3991;SDS011;2010;48.194;16.394;2023-08-21T01:29:11;11.17;;;10.20;;
3991;SDS011;2010;48.194;16.394;2023-08-21T01:31:43;11.10;;;10.13;;
3991;SDS011;2010;48.194;16.394;2023-08-21T01:34:22;10.17;;;9.37;;
3991;SDS011;2010;48.194;16.394;2023-08-21T01:36:52;13.90;;;11.33;;
3991;SDS011;2010;48.194;16.394;2023-08-21T01:39:43;11.47;;;10.40;;
3991;SDS011;2010;48.194;16.394;2023-08-21T01:42:14;10.27;;;9.57;;
3991;SDS011;2010;48.194;16.394;2023-08-21T01:44:49;12.13;;;10.83;;
3991;SDS011;2010;48.194;16.394;2023-08-21T01:47:17;15.43;;;10.30;;
3991;SDS011;2010;48.194;16.394;2023-08-21T01:49:49;11.73;;;10.50;;
3991;SDS011;2010;48.194;16.394;2023-08-21T01:52:21;10.60;;;9.80;;
3991;SDS011;2010;48.194;16.394;2023-08-21T01:54:51;10.20;;;9.50;;
3991;SDS011;2010;48.194;16.394;2023-08-21T01:57:23;12.03;;;10.30;;
3991;SDS011;2010;48.194;16.394;2023-08-21T01:59:52;11.00;;;9.80;;
3991;SDS011;2010;48.194;16.394;2023-08-21T02:02:50;11.77;;;10.63;;
3991;SDS011;2010;48.194;16.394;2023-08-21T02:05:20;11.23;;;10.23;;
3991;SDS011;2010;48.194;16.394;2023-08-21T02:07:49;11.77;;;10.67;;
3991;SDS011;2010;48.194;16.394;2023-08-21T02:10:23;11.70;;;9.43;;
3991;SDS011;2010;48.194;16.394;2023-08-21T02:12:53;11.03;;;9.93;;
3991;SDS011;2010;48.194;16.394;2023-08-21T02:15:21;11.40;;;10.50;;
3991;SDS011;2010;48.194;16.394;2023-08-21T02:18:00;12.00;;;11.00;;
3991;SDS011;2010;48.194;16.394;2023-08-21T02:20:32;10.90;;;10.00;;
3991;SDS011;2010;48.194;16.394;2023-08-21T02:23:01;11.33;;;10.30;;
3991;SDS011;2010;48.194;16.394;2023-08-21T02:25:32;11.17;;;10.20;;
3991;SDS011;2010;48.194;16.394;2023-08-21T02:28:01;12.20;;;11.10;;
3991;SDS011;2010;48.194;16.394;2023-08-21T02:30:32;15.30;;;11.27;;
3991;SDS011;2010;48.194;16.394;2023-08-21T02:33:04;11.30;;;10.30;;
3991;SDS011;2010;48.194;16.394;2023-08-21T02:35:36;11.93;;;10.93;;
3991;SDS011;2010;48.194;16.394;2023-08-21T02:38:10;11.60;;;9.80;;
3991;SDS011;2010;48.194;16.394;2023-08-21T02:40:51;11.73;;;10.63;;
3991;SDS011;2010;48.194;16.394;2023-08-21T02:43:21;10.87;;;9.87;;
3991;SDS011;2010;48.194;16.394;2023-08-21T02:45:55;12.57;;;11.47;;
3991;SDS011;2010;48.194;16.394;2023-08-21T02:48:26;11.13;;;10.10;;
3991;SDS011;2010;48.194;16.394;2023-08-21T02:50:57;12.00;;;11.00;;
3991;SDS011;2010;48.194;16.394;2023-08-21T02:53:28;11.83;;;10.73;;
3991;SDS011;2010;48.194;16.394;2023-08-21T02:55:58;10.97;;;10.17;;
3991;SDS011;2010;48.194;16.394;2023-08-21T02:58:28;12.40;;;11.30;;
3991;SDS011;2010;48.194;16.394;2023-08-21T03:00:58;10.90;;;9.77;;
3991;SDS011;2010;48.194;16.394;2023-08-21T03:03:30;11.63;;;10.67;;
3991;SDS011;2010;48.194;16.394;2023-08-21T03:06:05;11.53;;;10.53;;
3991;SDS011;2010;48.194;16.394;2023-08-21T03:08:34;10.83;;;9.77;;
3991;SDS011;2010;48.194;16.394;2023-08-21T03:11:15;11.20;;;10.07;;
3991;SDS011;2010;48.194;16.394;2023-08-21T03:13:44;13.57;;;10.27;;
3991;SDS011;2010;48.194;16.394;2023-08-21T03:16:13;11.33;;;10.43;;
3991;SDS011;2010;48.194;16.394;2023-08-21T03:18:55;12.47;;;11.33;;
3991;SDS011;2010;48.194;16.394;2023-08-21T03:21:34;11.27;;;10.27;;
3991;SDS011;2010;48.194;16.394;2023-08-21T03:24:03;12.10;;;10.90;;
3991;SDS011;2010;48.194;16.394;2023-08-21T03:26:38;12.27;;;11.10;;
3991;SDS011;2010;48.194;16.394;2023-08-21T03:29:09;11.80;;;10.80;;
3991;SDS011;2010;48.194;16.394;2023-08-21T03:31:39;12.37;;;11.03;;
3991;SDS011;2010;48.194;16.394;2023-08-21T03:34:09;12.50;;;10.97;;
3991;SDS011;2010;48.194;16.394;2023-08-21T03:36:37;11.33;;;10.53;;
3991;SDS011;2010;48.194;16.394;2023-08-21T03:39:09;12.70;;;11.50;;
3991;SDS011;2010;48.194;16.394;2023-08-21T03:41:45;12.60;;;11.50;;
3991;SDS011;2010;48.194;16.394;2023-08-21T03:44:17;17.73;;;11.50;;
3991;SDS011;2010;48.194;16.394;2023-08-21T03:46:57;12.07;;;10.97;;
3991;SDS011;2010;48.194;16.394;2023-08-21T03:49:35;11.10;;;10.30;;
3991;SDS011;2010;48.194;16.394;2023-08-21T03:52:09;11.87;;;10.97;;
3991;SDS011;2010;48.194;16.394;2023-08-21T03:54:41;11.90;;;10.93;;
3991;SDS011;2010;48.194;16.394;2023-08-21T03:57:16;12.27;;;11.20;;
3991;SDS011;2010;48.194;16.394;2023-08-21T03:59:52;10.83;;;9.93;;
3991;SDS011;2010;48.194;16.394;2023-08-21T04:02:20;11.60;;;10.57;;
3991;SDS011;2010;48.194;16.394;2023-08-21T04:04:53;11.97;;;10.87;;
3991;SDS011;2010;48.194;16.394;2023-08-21T04:07:31;12.47;;;11.27;;
3991;SDS011;2010;48.194;16.394;2023-08-21T04:10:12;11.43;;;10.43;;
3991;SDS011;2010;48.194;16.394;2023-08-21T04:12:42;12.10;;;11.10;;
3991;SDS011;2010;48.194;16.394;2023-08-21T04:15:18;11.93;;;10.53;;
3991;SDS011;2010;48.194;16.394;2023-08-21T04:17:54;10.90;;;9.97;;
3991;SDS011;2010;48.194;16.394;2023-08-21T04:20:27;11.60;;;10.50;;
3991;SDS011;2010;48.194;16.394;2023-08-21T04:22:58;12.60;;;11.50;;
3991;SDS011;2010;48.194;16.394;2023-08-21T04:25:27;12.77;;;11.20;;
3991;SDS011;2010;48.194;16.394;2023-08-21T04:28:04;12.77;;;11.63;;
3991;SDS011;2010;48.194;16.394;2023-08-21T04:30:35;12.20;;;10.67;;
3991;SDS011;2010;48.194;16.394;2023-08-21T04:33:04;12.37;;;11.27;;
3991;SDS011;2010;48.194;16.394;2023-08-21T04:35:36;11.93;;;10.80;;
3991;SDS011;2010;48.194;16.394;2023-08-21T04:38:08;15.90;;;11.00;;
3991;SDS011;2010;48.194;16.394;2023-08-21T04:40:46;13.13;;;10.97;;
3991;SDS011;2010;48.194;16.394;2023-08-21T04:43:28;13.33;;;10.67;;
3991;SDS011;2010;48.194;16.394;2023-08-21T04:45:58;12.43;;;11.23;;
3991;SDS011;2010;48.194;16.394;2023-08-21T04:48:37;13.27;;;12.00;;
3991;SDS011;2010;48.194;16.394;2023-08-21T04:51:11;15.80;;;10.43;;
3991;SDS011;2010;48.194;16.394;2023-08-21T04:53:49;12.07;;;10.80;;
3991;SDS011;2010;48.194;16.394;2023-08-21T04:56:34;11.53;;;10.47;;
3991;SDS011;2010;48.194;16.394;2023-08-21T04:59:16;13.63;;;11.33;;
3991;SDS011;2010;48.194;16.394;2023-08-21T05:01:46;12.20;;;11.07;;
3991;SDS011;2010;48.194;16.394;2023-08-21T05:04:15;12.33;;;10.70;;
3991;SDS011;2010;48.194;16.394;2023-08-21T05:06:46;11.70;;;10.60;;
3991;SDS011;2010;48.194;16.394;2023-08-21T05:09:16;12.20;;;11.10;;
3991;SDS011;2010;48.194;16.394;2023-08-21T05:11:54;11.77;;;10.20;;
3991;SDS011;2010;48.194;16.394;2023-08-21T05:14:30;13.03;;;11.83;;
3991;SDS011;2010;48.194;16.394;2023-08-21T05:16:58;11.30;;;10.27;;
3991;SDS011;2010;48.194;16.394;2023-08-21T05:19:43;13.60;;;12.50;;
3991;SDS011;2010;48.194;16.394;2023-08-21T05:22:12;17.57;;;11.23;;
3991;SDS011;2010;48.194;16.394;2023-08-21T05:24:43;11.53;;;10.33;;
3991;SDS011;2010;48.194;16.394;2023-08-21T05:27:12;13.23;;;11.07;;
3991;SDS011;2010;48.194;16.394;2023-08-21T05:29:50;13.73;;;11.00;;
3991;SDS011;2010;48.194;16.394;2023-08-21T05:32:28;12.27;;;11.00;;
3991;SDS011;2010;48.194;16.394;2023-08-21T05:35:08;15.87;;;10.00;;
3991;SDS011;2010;48.194;16.394;2023-08-21T05:37:39;10.87;;;9.97;;
3991;SDS011;2010;48.194;16.394;2023-08-21T05:40:16;11.50;;;10.43;;
3991;SDS011;2010;48.194;16.394;2023-08-21T05:42:54;12.10;;;10.80;;
3991;SDS011;2010;48.194;16.394;2023-08-21T05:45:32;12.00;;;10.80;;
3991;SDS011;2010;48.194;16.394;2023-08-21T05:48:01;13.53;;;10.20;;
3991;SDS011;2010;48.194;16.394;2023-08-21T05:50:33;14.03;;;11.67;;
3991;SDS011;2010;48.194;16.394;2023-08-21T05:53:17;12.07;;;10.47;;
3991;SDS011;2010;48.194;16.394;2023-08-21T05:55:50;12.70;;;10.37;;
3991;SDS011;2010;48.194;16.394;2023-08-21T05:58:29;12.60;;;11.33;;
3991;SDS011;2010;48.194;16.394;2023-08-21T06:01:03;13.93;;;10.70;;
3991;SDS011;2010;48.194;16.394;2023-08-21T06:03:39;15.20;;;10.90;;
3991;SDS011;2010;48.194;16.394;2023-08-21T06:06:38;11.17;;;10.20;;
3991;SDS011;2010;48.194;16.394;2023-08-21T06:09:14;15.23;;;10.90;;
3991;SDS011;2010;48.194;16.394;2023-08-21T06:11:49;11.77;;;10.53;;
3991;SDS011;2010;48.194;16.394;2023-08-21T06:14:19;13.23;;;10.87;;
3991;SDS011;2010;48.194;16.394;2023-08-21T06:17:11;13.10;;;10.97;;
3991;SDS011;2010;48.194;16.394;2023-08-21T06:19:52;11.50;;;10.40;;
3991;SDS011;2010;48.194;16.394;2023-08-21T06:22:24;13.30;;;11.90;;
3991;SDS011;2010;48.194;16.394;2023-08-21T06:25:00;12.27;;;10.97;;
3991;SDS011;2010;48.194;16.394;2023-08-21T06:27:31;11.97;;;10.87;;
3991;SDS011;2010;48.194;16.394;2023-08-21T06:30:18;12.03;;;10.33;;
3991;SDS011;2010;48.194;16.394;2023-08-21T06:32:57;13.40;;;12.00;;
3991;SDS011;2010;48.194;16.394;2023-08-21T06:35:27;12.00;;;10.67;;
3991;SDS011;2010;48.194;16.394;2023-08-21T06:37:59;12.13;;;10.60;;
3991;SDS011;2010;48.194;16.394;2023-08-21T06:40:28;11.30;;;10.23;;
3991;SDS011;2010;48.194;16.394;2023-08-21T06:42:59;15.90;;;11.40;;
3991;SDS011;2010;48.194;16.394;2023-08-21T06:45:42;15.07;;;12.73;;
3991;SDS011;2010;48.194;16.394;2023-08-21T06:48:23;12.47;;;11.27;;
3991;SDS011;2010;48.194;16.394;2023-08-21T06:50:55;13.20;;;11.93;;
3991;SDS011;2010;48.194;16.394;2023-08-21T06:53:27;11.67;;;10.67;;
3991;SDS011;2010;48.194;16.394;2023-08-21T06:55:55;12.03;;;10.80;;
3991;SDS011;2010;48.194;16.394;2023-08-21T06:58:26;12.73;;;11.53;;
3991;SDS011;2010;48.194;16.394;2023-08-21T07:00:59;11.73;;;10.63;;
3991;SDS011;2010;48.194;16.394;2023-08-21T07:03:39;12.63;;;11.20;;
3991;SDS011;2010;48.194;16.394;2023-08-21T07:06:08;12.77;;;11.57;;
3991;SDS011;2010;48.194;16.394;2023-08-21T07:08:37;17.43;;;12.33;;
3991;SDS011;2010;48.194;16.394;2023-08-21T07:11:09;13.87;;;11.20;;
3991;SDS011;2010;48.194;16.394;2023-08-21T07:13:42;12.50;;;11.27;;
3991;SDS011;2010;48.194;16.394;2023-08-21T07:16:22;12.33;;;10.97;;
3991;SDS011;2010;48.194;16.394;2023-08-21T07:18:57;13.70;;;11.60;;
3991;SDS011;2010;48.194;16.394;2023-08-21T07:21:27;11.67;;;10.67;;
3991;SDS011;2010;48.194;16.394;2023-08-21T07:24:00;14.97;;;11.40;;
3991;SDS011;2010;48.194;16.394;2023-08-21T07:26:32;12.17;;;10.97;;
3991;SDS011;2010;48.194;16.394;2023-08-21T07:29:00;11.77;;;10.67;;
3991;SDS011;2010;48.194;16.394;2023-08-21T07:31:32;12.87;;;10.80;;
3991;SDS011;2010;48.194;16.394;2023-08-21T07:34:06;10.90;;;9.90;;
3991;SDS011;2010;48.194;16.394;2023-08-21T07:36:44;11.63;;;10.63;;
3991;SDS011;2010;48.194;16.394;2023-08-21T07:39:14;11.30;;;10.13;;
3991;SDS011;2010;48.194;16.394;2023-08-21T07:41:44;11.97;;;10.70;;
3991;SDS011;2010;48.194;16.394;2023-08-21T07:44:14;12.30;;;11.07;;
3991;SDS011;2010;48.194;16.394;2023-08-21T07:46:47;10.77;;;9.87;;
3991;SDS011;2010;48.194;16.394;2023-08-21T07:49:22;11.07;;;9.93;;
3991;SDS011;2010;48.194;16.394;2023-08-21T07:51:54;12.57;;;10.30;;
3991;SDS011;2010;48.194;16.394;2023-08-21T07:54:24;13.37;;;10.03;;
3991;SDS011;2010;48.194;16.394;2023-08-21T07:56:55;11.50;;;10.60;;
3991;SDS011;2010;48.194;16.394;2023-08-21T07:59:24;13.77;;;10.27;;
3991;SDS011;2010;48.194;16.394;2023-08-21T08:01:56;10.60;;;9.60;;
3991;SDS011;2010;48.194;16.394;2023-08-21T08:04:39;11.63;;;10.63;;
3991;SDS011;2010;48.194;16.394;2023-08-21T08:07:09;11.43;;;10.23;;
3991;SDS011;2010;48.194;16.394;2023-08-21T08:09:41;11.80;;;10.20;;
3991;SDS011;2010;48.194;16.394;2023-08-21T08:12:14;12.77;;;11.50;;
3991;SDS011;2010;48.194;16.394;2023-08-21T08:14:48;11.53;;;10.17;;
3991;SDS011;2010;48.194;16.394;2023-08-21T08:17:19;11.40;;;10.40;;
3991;SDS011;2010;48.194;16.394;2023-08-21T08:19:53;13.43;;;11.27;;
3991;SDS011;2010;48.194;16.394;2023-08-21T08:22:21;11.20;;;10.20;;
3991;SDS011;2010;48.194;16.394;2023-08-21T08:24:53;11.30;;;10.27;;
3991;SDS011;2010;48.194;16.394;2023-08-21T08:27:27;11.70;;;10.70;;
3991;SDS011;2010;48.194;16.394;2023-08-21T08:29:55;11.73;;;10.53;;
3991;SDS011;2010;48.194;16.394;2023-08-21T08:32:27;10.77;;;9.80;;
3991;SDS011;2010;48.194;16.394;2023-08-21T08:34:58;10.50;;;9.60;;
3991;SDS011;2010;48.194;16.394;2023-08-21T08:37:29;11.13;;;9.93;;
3991;SDS011;2010;48.194;16.394;2023-08-21T08:39:57;10.90;;;9.90;;
3991;SDS011;2010;48.194;16.394;2023-08-21T08:42:27;10.27;;;9.33;;
3991;SDS011;2010;48.194;16.394;2023-08-21T08:45:17;11.07;;;10.17;;
3991;SDS011;2010;48.194;16.394;2023-08-21T08:48:04;10.00;;;9.10;;
3991;SDS011;2010;48.194;16.394;2023-08-21T08:50:56;10.50;;;9.60;;
3991;SDS011;2010;48.194;16.394;2023-08-21T08:53:25;13.53;;;9.40;;
3991;SDS011;2010;48.194;16.394;2023-08-21T08:55:55;10.30;;;9.37;;
3991;SDS011;2010;48.194;16.394;2023-08-21T08:58:26;10.63;;;9.80;;
3991;SDS011;2010;48.194;16.394;2023-08-21T09:00:54;9.87;;;9.17;;
3991;SDS011;2010;48.194;16.394;2023-08-21T09:03:32;10.07;;;9.13;;
3991;SDS011;2010;48.194;16.394;2023-08-21T09:06:03;11.30;;;8.93;;
3991;SDS011;2010;48.194;16.394;2023-08-21T09:08:35;10.30;;;9.30;;
3991;SDS011;2010;48.194;16.394;2023-08-21T09:11:08;13.73;;;9.40;;
3991;SDS011;2010;48.194;16.394;2023-08-21T09:13:38;9.30;;;8.60;;
3991;SDS011;2010;48.194;16.394;2023-08-21T09:16:12;13.13;;;9.40;;
3991;SDS011;2010;48.194;16.394;2023-08-21T09:18:55;9.93;;;8.73;;
3991;SDS011;2010;48.194;16.394;2023-08-21T09:21:28;9.20;;;8.40;;
3991;SDS011;2010;48.194;16.394;2023-08-21T09:23:58;8.93;;;8.17;;
3991;SDS011;2010;48.194;16.394;2023-08-21T09:26:30;11.97;;;10.77;;
3991;SDS011;2010;48.194;16.394;2023-08-21T09:29:03;9.93;;;8.90;;
3991;SDS011;2010;48.194;16.394;2023-08-21T09:31:39;10.73;;;9.23;;
3991;SDS011;2010;48.194;16.394;2023-08-21T09:34:10;8.57;;;7.77;;
3991;SDS011;2010;48.194;16.394;2023-08-21T09:36:45;9.53;;;8.60;;
3991;SDS011;2010;48.194;16.394;2023-08-21T09:39:22;9.80;;;8.37;;
3991;SDS011;2010;48.194;16.394;2023-08-21T09:41:58;9.40;;;8.50;;
3991;SDS011;2010;48.194;16.394;2023-08-21T09:44:40;8.90;;;8.00;;
3991;SDS011;2010;48.194;16.394;2023-08-21T09:47:18;9.50;;;8.57;;
3991;SDS011;2010;48.194;16.394;2023-08-21T09:49:57;9.30;;;8.40;;
3991;SDS011;2010;48.194;16.394;2023-08-21T09:52:40;9.80;;;9.00;;
3991;SDS011;2010;48.194;16.394;2023-08-21T09:55:12;11.60;;;8.67;;
3991;SDS011;2010;48.194;16.394;2023-08-21T09:57:42;13.00;;;9.33;;
3991;SDS011;2010;48.194;16.394;2023-08-21T10:00:19;9.37;;;8.57;;
3991;SDS011;2010;48.194;16.394;2023-08-21T10:02:59;10.33;;;9.23;;
3991;SDS011;2010;48.194;16.394;2023-08-21T10:05:31;10.83;;;9.73;;
3991;SDS011;2010;48.194;16.394;2023-08-21T10:08:06;9.60;;;8.40;;
3991;SDS011;2010;48.194;16.394;2023-08-21T10:10:39;9.47;;;8.77;;
3991;SDS011;2010;48.194;16.394;2023-08-21T10:13:09;9.20;;;8.40;;
3991;SDS011;2010;48.194;16.394;2023-08-21T10:15:41;9.20;;;8.40;;
3991;SDS011;2010;48.194;16.394;2023-08-21T10:18:19;9.00;;;8.30;;
3991;SDS011;2010;48.194;16.394;2023-08-21T10:20:52;9.40;;;8.40;;
3991;SDS011;2010;48.194;16.394;2023-08-21T10:23:36;10.20;;;9.30;;
3991;SDS011;2010;48.194;16.394;2023-08-21T10:26:11;8.73;;;8.03;;
3991;SDS011;2010;48.194;16.394;2023-08-21T10:28:41;8.63;;;7.83;;
3991;SDS011;2010;48.194;16.394;2023-08-21T10:31:28;11.40;;;9.30;;
3991;SDS011;2010;48.194;16.394;2023-08-21T10:34:11;9.00;;;8.20;;
3991;SDS011;2010;48.194;16.394;2023-08-21T10:39:56;8.57;;;7.77;;
3991;SDS011;2010;48.194;16.394;2023-08-21T10:42:38;9.20;;;8.40;;
3991;SDS011;2010;48.194;16.394;2023-08-21T10:45:10;8.93;;;8.10;;
3991;SDS011;2010;48.194;16.394;2023-08-21T10:47:40;9.30;;;8.40;;
3991;SDS011;2010;48.194;16.394;2023-08-21T10:50:16;10.30;;;8.20;;
3991;SDS011;2010;48.194;16.394;2023-08-21T10:52:51;11.10;;;8.80;;
3991;SDS011;2010;48.194;16.394;2023-08-21T10:55:23;10.03;;;7.80;;
3991;SDS011;2010;48.194;16.394;2023-08-21T10:58:01;9.30;;;7.97;;
3991;SDS011;2010;48.194;16.394;2023-08-21T11:00:30;9.73;;;7.40;;
3991;SDS011;2010;48.194;16.394;2023-08-21T11:03:03;8.63;;;7.07;;
3991;SDS011;2010;48.194;16.394;2023-08-21T11:05:37;9.37;;;8.47;;
3991;SDS011;2010;48.194;16.394;2023-08-21T11:08:09;11.00;;;8.47;;
3991;SDS011;2010;48.194;16.394;2023-08-21T11:10:41;9.67;;;8.77;;
3991;SDS011;2010;48.194;16.394;2023-08-21T11:13:18;9.53;;;8.63;;
3991;SDS011;2010;48.194;16.394;2023-08-21T11:15:47;10.60;;;9.50;;
3991;SDS011;2010;48.194;16.394;2023-08-21T11:18:16;9.00;;;7.77;;
3991;SDS011;2010;48.194;16.394;2023-08-21T11:20:48;8.07;;;7.27;;
3991;SDS011;2010;48.194;16.394;2023-08-21T11:23:18;7.17;;;6.57;;
3991;SDS011;2010;48.194;16.394;2023-08-21T11:26:02;7.30;;;6.37;;
3991;SDS011;2010;48.194;16.394;2023-08-21T11:28:47;7.27;;;6.43;;
3991;SDS011;2010;48.194;16.394;2023-08-21T11:31:22;6.87;;;6.27;;
3991;SDS011;2010;48.194;16.394;2023-08-21T11:33:58;6.80;;;6.20;;
3991;SDS011;2010;48.194;16.394;2023-08-21T11:36:50;9.97;;;6.37;;
3991;SDS011;2010;48.194;16.394;2023-08-21T11:39:19;6.13;;;5.53;;
3991;SDS011;2010;48.194;16.394;2023-08-21T11:41:59;6.90;;;6.30;;
3991;SDS011;2010;48.194;16.394;2023-08-21T11:44:32;6.50;;;6.07;;
3991;SDS011;2010;48.194;16.394;2023-08-21T11:47:02;7.57;;;6.37;;
3991;SDS011;2010;48.194;16.394;2023-08-21T11:49:32;5.63;;;5.10;;
3991;SDS011;2010;48.194;16.394;2023-08-21T11:52:10;6.53;;;5.93;;
3991;SDS011;2010;48.194;16.394;2023-08-21T11:54:52;5.80;;;5.33;;
3991;SDS011;2010;48.194;16.394;2023-08-21T11:57:25;6.20;;;5.70;;
3991;SDS011;2010;48.194;16.394;2023-08-21T11:59:58;7.00;;;6.30;;
3991;SDS011;2010;48.194;16.394;2023-08-21T12:02:32;6.50;;;6.00;;
3991;SDS011;2010;48.194;16.394;2023-08-21T12:05:04;6.67;;;6.00;;
3991;SDS011;2010;48.194;16.394;2023-08-21T12:07:41;8.50;;;5.37;;
3991;SDS011;2010;48.194;16.394;2023-08-21T12:10:11;7.00;;;4.93;;
3991;SDS011;2010;48.194;16.394;2023-08-21T12:12:45;5.97;;;5.33;;
3991;SDS011;2010;48.194;16.394;2023-08-21T12:15:15;9.00;;;6.43;;
3991;SDS011;2010;48.194;16.394;2023-08-21T12:17:52;5.70;;;5.27;;
3991;SDS011;2010;48.194;16.394;2023-08-21T12:20:20;7.23;;;5.90;;
3991;SDS011;2010;48.194;16.394;2023-08-21T12:22:53;6.33;;;5.70;;
3991;SDS011;2010;48.194;16.394;2023-08-21T12:25:22;9.00;;;6.30;;
3991;SDS011;2010;48.194;16.394;2023-08-21T12:27:52;9.33;;;7.00;;
3991;SDS011;2010;48.194;16.394;2023-08-21T12:30:37;6.73;;;6.00;;
3991;SDS011;2010;48.194;16.394;2023-08-21T12:33:09;8.73;;;6.60;;
3991;SDS011;2010;48.194;16.394;2023-08-21T12:35:51;6.73;;;6.10;;
3991;SDS011;2010;48.194;16.394;2023-08-21T12:38:24;7.23;;;5.97;;
3991;SDS011;2010;48.194;16.394;2023-08-21T12:40:57;7.93;;;5.90;;
3991;SDS011;2010;48.194;16.394;2023-08-21T12:43:29;7.10;;;6.03;;
3991;SDS011;2010;48.194;16.394;2023-08-21T12:46:00;6.03;;;5.53;;
3991;SDS011;2010;48.194;16.394;2023-08-21T12:48:32;5.60;;;5.20;;
3991;SDS011;2010;48.194;16.394;2023-08-21T12:51:03;7.30;;;5.80;;
3991;SDS011;2010;48.194;16.394;2023-08-21T12:53:32;6.00;;;5.40;;
3991;SDS011;2010;48.194;16.394;2023-08-21T12:56:01;6.47;;;5.83;;
3991;SDS011;2010;48.194;16.394;2023-08-21T12:58:33;6.23;;;5.63;;
3991;SDS011;2010;48.194;16.394;2023-08-21T13:01:04;12.93;;;5.70;;
3991;SDS011;2010;48.194;16.394;2023-08-21T13:03:35;9.00;;;5.70;;
3991;SDS011;2010;48.194;16.394;2023-08-21T13:06:16;5.77;;;5.17;;
3991;SDS011;2010;48.194;16.394;2023-08-21T13:08:48;8.60;;;5.67;;
3991;SDS011;2010;48.194;16.394;2023-08-21T13:11:18;7.70;;;5.53;;
3991;SDS011;2010;48.194;16.394;2023-08-21T13:13:52;5.80;;;5.30;;
3991;SDS011;2010;48.194;16.394;2023-08-21T13:16:28;7.83;;;6.03;;
3991;SDS011;2010;48.194;16.394;2023-08-21T13:19:00;6.73;;;4.87;;
3991;SDS011;2010;48.194;16.394;2023-08-21T13:21:29;5.73;;;5.33;;
3991;SDS011;2010;48.194;16.394;2023-08-21T13:24:01;6.93;;;4.83;;
3991;SDS011;2010;48.194;16.394;2023-08-21T13:26:30;6.10;;;5.20;;
3991;SDS011;2010;48.194;16.394;2023-08-21T13:29:01;5.43;;;4.80;;
3991;SDS011;2010;48.194;16.394;2023-08-21T13:31:31;5.27;;;4.70;;
3991;SDS011;2010;48.194;16.394;2023-08-21T13:34:02;14.67;;;5.20;;
3991;SDS011;2010;48.194;16.394;2023-08-21T13:36:34;5.70;;;4.27;;
3991;SDS011;2010;48.194;16.394;2023-08-21T13:39:11;7.10;;;5.50;;
3991;SDS011;2010;48.194;16.394;2023-08-21T13:41:43;5.83;;;4.80;;
3991;SDS011;2010;48.194;16.394;2023-08-21T13:44:19;5.73;;;4.77;;
3991;SDS011;2010;48.194;16.394;2023-08-21T13:47:02;4.60;;;4.20;;
3991;SDS011;2010;48.194;16.394;2023-08-21T13:49:32;6.87;;;4.47;;
3991;SDS011;2010;48.194;16.394;2023-08-21T13:52:02;6.93;;;4.57;;
3991;SDS011;2010;48.194;16.394;2023-08-21T13:54:34;4.90;;;4.50;;
3991;SDS011;2010;48.194;16.394;2023-08-21T13:57:03;4.93;;;4.50;;
3991;SDS011;2010;48.194;16.394;2023-08-21T13:59:41;5.53;;;5.00;;
3991;SDS011;2010;48.194;16.394;2023-08-21T14:02:15;5.03;;;4.50;;
3991;SDS011;2010;48.194;16.394;2023-08-21T14:04:52;5.27;;;4.97;;
3991;SDS011;2010;48.194;16.394;2023-08-21T14:07:23;5.50;;;4.50;;
3991;SDS011;2010;48.194;16.394;2023-08-21T14:09:54;4.43;;;4.03;;
3991;SDS011;2010;48.194;16.394;2023-08-21T14:12:29;5.27;;;4.77;;
3991;SDS011;2010;48.194;16.394;2023-08-21T14:15:13;5.30;;;4.90;;
3991;SDS011;2010;48.194;16.394;2023-08-21T14:17:49;5.50;;;3.93;;
3991;SDS011;2010;48.194;16.394;2023-08-21T14:20:32;5.00;;;4.70;;
3991;SDS011;2010;48.194;16.394;2023-08-21T14:23:01;5.50;;;4.10;;
3991;SDS011;2010;48.194;16.394;2023-08-21T14:25:34;5.73;;;4.47;;
3991;SDS011;2010;48.194;16.394;2023-08-21T14:28:04;6.50;;;5.30;;
3991;SDS011;2010;48.194;16.394;2023-08-21T14:30:38;5.23;;;4.80;;
3991;SDS011;2010;48.194;16.394;2023-08-21T14:33:10;5.13;;;4.73;;
3991;SDS011;2010;48.194;16.394;2023-08-21T14:35:45;5.00;;;4.47;;
3991;SDS011;2010;48.194;16.394;2023-08-21T14:38:16;4.80;;;4.47;;
3991;SDS011;2010;48.194;16.394;2023-08-21T14:40:47;4.33;;;4.03;;
3991;SDS011;2010;48.194;16.394;2023-08-21T14:43:17;3.97;;;3.73;;
3991;SDS011;2010;48.194;16.394;2023-08-21T14:45:50;4.70;;;3.67;;
3991;SDS011;2010;48.194;16.394;2023-08-21T14:48:19;4.00;;;3.80;;
3991;SDS011;2010;48.194;16.394;2023-08-21T14:50:51;3.80;;;3.60;;
3991;SDS011;2010;48.194;16.394;2023-08-21T14:53:23;4.40;;;4.07;;
3991;SDS011;2010;48.194;16.394;2023-08-21T14:56:04;6.93;;;4.27;;
3991;SDS011;2010;48.194;16.394;2023-08-21T14:58:33;5.17;;;4.60;;
3991;SDS011;2010;48.194;16.394;2023-08-21T15:01:05;6.30;;;4.53;;
3991;SDS011;2010;48.194;16.394;2023-08-21T15:03:36;4.60;;;4.27;;
3991;SDS011;2010;48.194;16.394;2023-08-21T15:06:07;10.53;;;5.73;;
3991;SDS011;2010;48.194;16.394;2023-08-21T15:08:43;6.00;;;5.50;;
3991;SDS011;2010;48.194;16.394;2023-08-21T15:11:15;4.20;;;3.90;;
3991;SDS011;2010;48.194;16.394;2023-08-21T15:13:47;3.57;;;3.37;;
3991;SDS011;2010;48.194;16.394;2023-08-21T15:16:21;3.80;;;3.50;;
3991;SDS011;2010;48.194;16.394;2023-08-21T15:18:50;4.23;;;3.40;;
3991;SDS011;2010;48.194;16.394;2023-08-21T15:21:22;3.40;;;3.20;;
3991;SDS011;2010;48.194;16.394;2023-08-21T15:23:51;5.10;;;3.50;;
3991;SDS011;2010;48.194;16.394;2023-08-21T15:26:24;4.03;;;3.73;;
3991;SDS011;2010;48.194;16.394;2023-08-21T15:28:54;3.70;;;3.40;;